createdAt,value
2022-11-10T00:01:07.739Z,101348.78
2022-11-10T00:03:35.559Z,101356.59
2022-11-10T00:06:06.503Z,101349.81
2022-11-10T00:08:32.922Z,101361.13
2022-11-10T00:11:01.296Z,101347.69
2022-11-10T00:13:31.656Z,101356.44
2022-11-10T00:16:18.206Z,101357.00
2022-11-10T00:18:45.078Z,101354.59
2022-11-10T00:21:13.042Z,101355.63
2022-11-10T00:23:39.701Z,101349.41
2022-11-10T00:26:12.169Z,101364.13
2022-11-10T00:28:38.715Z,101362.72
2022-11-10T00:31:06.279Z,101368.56
2022-11-10T00:33:35.394Z,101365.13
2022-11-10T00:36:02.017Z,101355.63
2022-11-10T00:38:28.425Z,101363.47
2022-11-10T00:40:54.823Z,101362.88
2022-11-10T00:43:26.227Z,101361.16
2022-11-10T00:45:53.064Z,101364.72
2022-11-10T00:48:19.430Z,101368.16
2022-11-10T00:50:46.160Z,101376.22
2022-11-10T00:53:13.030Z,101374.09
2022-11-10T00:55:40.753Z,101370.97
2022-11-10T00:58:09.929Z,101373.09
2022-11-10T01:00:36.506Z,101385.00
2022-11-10T01:03:03.197Z,101383.16
2022-11-10T01:05:30.767Z,101386.84
2022-11-10T01:07:59.451Z,101406.75
2022-11-10T01:10:26.664Z,101399.66
2022-11-10T01:12:53.270Z,101401.94
2022-11-10T01:15:24.506Z,101410.03
2022-11-10T01:17:54.867Z,101412.75
2022-11-10T01:20:21.728Z,101411.75
2022-11-10T01:22:48.141Z,101414.31
2022-11-10T01:25:14.656Z,101411.00
2022-11-10T01:27:41.078Z,101419.00
2022-11-10T01:30:07.862Z,101424.69
2022-11-10T01:32:34.400Z,101422.53
2022-11-10T01:35:00.764Z,101427.81
2022-11-10T01:37:27.361Z,101428.25
2022-11-10T01:39:53.851Z,101427.94
2022-11-10T01:42:28.928Z,101432.50
2022-11-10T01:45:34.560Z,101427.94
2022-11-10T01:48:05.415Z,101420.84
2022-11-10T01:50:39.922Z,101426.69
2022-11-10T01:53:13.272Z,101424.53
2022-11-10T01:55:43.122Z,101420.97
2022-11-10T01:58:12.673Z,101416.59
2022-11-10T02:00:39.111Z,101434.19
2022-11-10T02:03:27.930Z,101428.09
2022-11-10T02:05:55.602Z,101428.38
2022-11-10T02:08:23.345Z,101443.13
2022-11-10T02:10:49.759Z,101445.97
2022-11-10T02:13:16.691Z,101445.56
2022-11-10T02:15:43.371Z,101459.34
2022-11-10T02:18:09.790Z,101454.78
2022-11-10T02:20:36.233Z,101461.44
2022-11-10T02:23:35.747Z,101466.41
2022-11-10T02:26:07.052Z,101465.72
2022-11-10T02:28:36.361Z,101462.59
2022-11-10T02:31:03.259Z,101472.25
2022-11-10T02:33:30.092Z,101466.84
2022-11-10T02:35:56.586Z,101468.84
2022-11-10T02:38:23.139Z,101475.94
2022-11-10T02:40:49.988Z,101479.50
2022-11-10T02:43:18.352Z,101481.06
2022-11-10T02:45:45.473Z,101474.09
2022-11-10T02:48:14.626Z,101475.22
2022-11-10T02:50:41.415Z,101471.97
2022-11-10T02:53:08.309Z,101471.25
2022-11-10T02:55:34.735Z,101479.50
2022-11-10T02:58:01.220Z,101495.25
2022-11-10T03:00:27.632Z,101491.97
2022-11-10T03:02:57.896Z,101490.28
2022-11-10T03:05:24.881Z,101479.34
2022-11-10T03:07:55.685Z,101488.41
2022-11-10T03:10:22.784Z,101498.06
2022-11-10T03:12:49.685Z,101511.81
2022-11-10T03:15:16.168Z,101517.81
2022-11-10T03:17:43.080Z,101518.66
2022-11-10T03:20:09.851Z,101519.53
2022-11-10T03:22:36.932Z,101512.56
2022-11-10T03:25:04.086Z,101511.00
2022-11-10T03:27:30.515Z,101515.09
2022-11-10T03:29:56.964Z,101514.25
2022-11-10T03:32:23.523Z,101507.28
2022-11-10T03:34:49.940Z,101509.72
2022-11-10T03:37:16.414Z,101531.28
2022-11-10T03:39:42.827Z,101531.28
2022-11-10T03:42:09.278Z,101535.53
2022-11-10T03:44:35.661Z,101547.03
2022-11-10T03:47:03.889Z,101546.88
2022-11-10T03:49:31.085Z,101546.31
2022-11-10T03:51:57.750Z,101554.09
2022-11-10T03:54:24.147Z,101552.28
2022-11-10T03:56:50.523Z,101550.41
2022-11-10T03:59:16.890Z,101557.91
2022-11-10T04:01:43.520Z,101554.78
2022-11-10T04:04:30.691Z,101566.97
2022-11-10T04:07:15.661Z,101572.38
2022-11-10T04:09:42.176Z,101580.06
2022-11-10T04:12:27.256Z,101595.25
2022-11-10T04:15:12.305Z,101594.53
2022-11-10T04:17:38.657Z,101611.16
2022-11-10T04:20:05.588Z,101614.53
2022-11-10T04:22:50.828Z,101612.28
2022-11-10T04:25:17.256Z,101620.34
2022-11-10T04:27:43.657Z,101616.63
2022-11-10T04:30:10.590Z,101626.72
2022-11-10T04:32:36.981Z,101632.25
2022-11-10T04:35:03.528Z,101630.25
2022-11-10T04:37:29.965Z,101635.66
2022-11-10T04:39:56.363Z,101636.97
2022-11-10T04:42:22.738Z,101633.81
2022-11-10T04:44:49.113Z,101645.47
2022-11-10T04:47:15.464Z,101645.84
2022-11-10T04:49:41.861Z,101642.47
2022-11-10T04:52:08.253Z,101653.84
2022-11-10T04:54:34.634Z,101641.50
2022-11-10T04:57:01.187Z,101655.84
2022-11-10T04:59:27.541Z,101644.03
2022-11-10T05:01:53.896Z,101646.63
2022-11-10T05:04:20.281Z,101644.91
2022-11-10T05:06:46.688Z,101644.72
2022-11-10T05:09:14.198Z,101644.47
2022-11-10T05:11:40.624Z,101652.81
2022-11-10T05:14:07.081Z,101647.88
2022-11-10T05:16:33.559Z,101658.09
2022-11-10T05:18:59.979Z,101660.78
2022-11-10T05:21:26.718Z,101660.59
2022-11-10T05:23:53.102Z,101665.97
2022-11-10T05:26:19.717Z,101668.69
2022-11-10T05:28:46.333Z,101669.81
2022-11-10T05:31:12.887Z,101677.28
2022-11-10T05:33:39.413Z,101670.06
2022-11-10T05:36:07.054Z,101680.69
2022-11-10T05:38:34.946Z,101675.72
2022-11-10T05:41:04.107Z,101678.84
2022-11-10T05:43:30.475Z,101669.09
2022-11-10T05:45:56.851Z,101684.50
2022-11-10T05:48:23.228Z,101678.97
2022-11-10T05:50:49.690Z,101690.75
2022-11-10T05:53:16.094Z,101684.41
2022-11-10T05:55:42.514Z,101687.41
2022-11-10T05:58:09.138Z,101681.47
2022-11-10T06:00:35.892Z,101685.59
2022-11-10T06:03:10.317Z,101682.63
2022-11-10T06:05:36.857Z,101685.28
2022-11-10T06:08:04.972Z,101683.41
2022-11-10T06:10:32.752Z,101695.97
2022-11-10T06:12:59.222Z,101695.91
2022-11-10T06:15:26.274Z,101706.44
2022-11-10T06:17:53.242Z,101713.66
2022-11-10T06:20:19.773Z,101712.69
2022-11-10T06:23:15.408Z,101713.25
2022-11-10T06:25:42.115Z,101728.50
2022-11-10T06:28:09.560Z,101727.72
2022-11-10T06:30:37.538Z,101739.53
2022-11-10T06:33:04.324Z,101736.47
2022-11-10T06:35:31.033Z,101750.66
2022-11-10T06:38:05.795Z,101744.16
2022-11-10T06:40:32.913Z,101761.44
2022-11-10T06:43:00.099Z,101757.56
2022-11-10T06:45:28.502Z,101757.94
2022-11-10T06:48:04.201Z,101770.09
2022-11-10T06:50:31.179Z,101777.59
2022-11-10T06:52:59.005Z,101778.06
2022-11-10T06:55:25.923Z,101782.59
2022-11-10T06:57:52.386Z,101781.16
2022-11-10T07:00:19.028Z,101787.97
2022-11-10T07:02:45.609Z,101788.44
2022-11-10T07:05:12.041Z,101789.75
2022-11-10T07:07:38.478Z,101796.22
2022-11-10T07:10:07.135Z,101805.22
2022-11-10T07:12:34.019Z,101804.22
2022-11-10T07:15:00.635Z,101816.31
2022-11-10T07:17:27.210Z,101817.19
2022-11-10T07:19:53.686Z,101831.94
2022-11-10T07:22:20.115Z,101834.22
2022-11-10T07:24:46.917Z,101836.91
2022-11-10T07:27:16.469Z,101831.38
2022-11-10T07:29:42.992Z,101834.22
2022-11-10T07:32:09.522Z,101830.06
2022-11-10T07:34:35.974Z,101836.06
2022-11-10T07:37:02.476Z,101835.81
2022-11-10T07:39:28.959Z,101841.66
2022-11-10T07:41:55.522Z,101843.69
2022-11-10T07:44:21.952Z,101839.16
2022-11-10T07:46:48.378Z,101834.84
2022-11-10T07:49:15.001Z,101838.38
2022-11-10T07:51:42.816Z,101833.25
2022-11-10T07:54:09.390Z,101838.16
2022-11-10T07:56:35.927Z,101847.06
2022-11-10T07:59:02.352Z,101852.19
2022-11-10T08:01:28.925Z,101859.38
2022-11-10T08:03:55.579Z,101857.25
2022-11-10T08:06:22.080Z,101859.41
2022-11-10T08:08:48.722Z,101866.53
2022-11-10T08:11:15.341Z,101866.38
2022-11-10T08:13:42.277Z,101862.50
2022-11-10T08:16:09.118Z,101868.50
2022-11-10T08:18:35.891Z,101868.41
2022-11-10T08:21:04.785Z,101870.13
2022-11-10T08:23:31.438Z,101868.25
2022-11-10T08:25:59.148Z,101860.81
2022-11-10T08:28:26.322Z,101857.66
2022-11-10T08:30:54.046Z,101870.91
2022-11-10T08:33:21.737Z,101893.25
2022-11-10T08:35:50.380Z,101887.75
2022-11-10T08:38:22.044Z,101905.91
2022-11-10T08:40:49.178Z,101903.94
2022-11-10T08:43:17.627Z,101899.22
2022-11-10T08:45:44.951Z,101908.22
2022-11-10T08:48:19.798Z,101903.50
2022-11-10T08:50:47.035Z,101898.75
2022-11-10T08:53:15.613Z,101900.88
2022-11-10T08:55:43.503Z,101904.88
2022-11-10T08:58:15.822Z,101910.91
2022-11-10T09:00:42.681Z,101911.94
2022-11-10T09:03:13.830Z,101918.38
2022-11-10T09:05:41.563Z,101912.28
2022-11-10T09:08:09.061Z,101906.28
2022-11-10T09:10:38.977Z,101907.91
2022-11-10T09:13:06.346Z,101902.94
2022-11-10T09:15:34.642Z,101903.16
2022-11-10T09:18:02.849Z,101915.13
2022-11-10T09:20:31.115Z,101904.38
2022-11-10T09:23:06.230Z,101908.03
2022-11-10T09:25:33.467Z,101911.56
2022-11-10T09:27:59.936Z,101918.88
2022-11-10T09:30:26.489Z,101928.59
2022-11-10T09:32:57.461Z,101922.00
2022-11-10T09:35:24.472Z,101930.59
2022-11-10T09:37:50.925Z,101924.00
2022-11-10T09:40:20.518Z,101935.03
2022-11-10T09:42:48.402Z,101932.31
2022-11-10T09:45:36.513Z,101936.56
2022-11-10T09:48:21.900Z,101934.06
2022-11-10T09:50:54.028Z,101935.47
2022-11-10T09:53:24.776Z,101933.19
2022-11-10T09:55:58.190Z,101936.41
2022-11-10T09:58:33.329Z,101938.88
2022-11-10T10:01:12.208Z,101944.75
2022-11-10T10:03:47.652Z,101954.94
2022-11-10T10:06:16.171Z,101966.47
2022-11-10T10:08:58.566Z,101972.84
2022-11-10T10:11:45.267Z,101978.38
2022-11-10T10:14:35.381Z,101982.56
2022-11-10T10:17:26.944Z,101980.59
2022-11-10T10:20:29.219Z,101987.94
2022-11-10T10:23:13.785Z,101986.09
2022-11-10T10:25:43.491Z,101999.75
2022-11-10T10:28:19.245Z,101995.22
2022-11-10T10:30:45.933Z,101990.72
2022-11-10T10:33:17.533Z,102003.63
2022-11-10T10:35:45.236Z,102004.72
2022-11-10T10:38:21.698Z,102017.44
2022-11-10T10:40:50.999Z,102014.66
2022-11-10T10:43:18.361Z,102012.41
2022-11-10T10:45:44.908Z,102010.22
2022-11-10T10:48:25.747Z,102018.31
2022-11-10T10:50:52.147Z,102019.25
2022-11-10T10:53:23.640Z,102015.22
2022-11-10T10:56:15.253Z,102006.28
2022-11-10T10:58:55.546Z,102001.19
2022-11-10T11:01:33.747Z,102001.50
2022-11-10T11:04:04.925Z,101995.91
2022-11-10T11:06:33.384Z,101995.53
2022-11-10T11:09:15.894Z,102001.66
2022-11-10T11:11:44.658Z,101999.84
2022-11-10T11:14:28.775Z,102011.31
2022-11-10T11:16:58.006Z,102006.03
2022-11-10T11:19:28.121Z,102019.16
2022-11-10T11:22:22.291Z,102019.09
2022-11-10T11:24:59.534Z,102021.56
2022-11-10T11:27:37.834Z,102034.84
2022-11-10T11:30:21.216Z,102044.53
2022-11-10T11:33:12.615Z,102049.97
2022-11-10T11:36:03.185Z,102048.97
2022-11-10T11:38:44.147Z,102046.69
2022-11-10T11:41:19.655Z,102047.91
2022-11-10T11:44:33.698Z,102061.66
2022-11-10T11:47:32.963Z,102082.34
2022-11-10T11:50:15.377Z,102070.69
2022-11-10T11:53:24.036Z,102078.19
2022-11-10T11:56:19.865Z,102080.66
2022-11-10T11:58:59.423Z,102087.28
2022-11-10T12:01:53.037Z,102097.28
2022-11-10T12:04:25.675Z,102103.56
2022-11-10T12:07:13.183Z,102084.56
2022-11-10T12:09:49.462Z,102085.44
2022-11-10T12:12:37.484Z,102091.25
2022-11-10T12:15:16.162Z,102088.34
2022-11-10T12:17:51.540Z,102090.06
2022-11-10T12:20:37.634Z,102088.84
2022-11-10T12:23:38.419Z,102103.50
2022-11-10T12:26:25.333Z,102083.94
2022-11-10T12:29:06.115Z,102084.56
2022-11-10T12:31:35.633Z,102084.34
2022-11-10T12:34:09.414Z,102098.75
2022-11-10T12:36:37.160Z,102096.44
2022-11-10T12:39:13.695Z,102096.19
2022-11-10T12:41:46.798Z,102095.28
2022-11-10T12:44:36.604Z,102099.59
2022-11-10T12:47:06.211Z,102093.16
2022-11-10T12:49:34.192Z,102101.75
2022-11-10T12:52:09.163Z,102101.03
2022-11-10T12:54:36.379Z,102107.72
2022-11-10T12:57:18.472Z,102118.25
2022-11-10T13:00:27.707Z,102093.75
2022-11-10T13:02:56.135Z,102110.09
2022-11-10T13:05:27.613Z,102097.56
2022-11-10T13:08:06.693Z,102103.59
2022-11-10T13:10:33.459Z,102108.91
2022-11-10T13:13:05.823Z,102107.31
2022-11-10T13:15:35.313Z,102108.13
2022-11-10T13:18:02.226Z,102108.00
2022-11-10T13:20:52.215Z,102106.22
2022-11-10T13:23:31.269Z,102098.97
2022-11-10T13:26:05.679Z,102103.84
2022-11-10T13:28:47.519Z,102100.34
2022-11-10T13:31:29.483Z,102108.19
2022-11-10T13:34:12.623Z,102112.88
2022-11-10T13:36:47.693Z,102110.66
2022-11-10T13:39:20.194Z,102099.84
2022-11-10T13:41:48.409Z,102103.91
2022-11-10T13:44:25.472Z,102092.56
2022-11-10T13:47:10.118Z,102090.41
2022-11-10T13:49:58.507Z,102088.59
2022-11-10T13:52:46.532Z,102091.31
2022-11-10T13:55:47.264Z,102093.47
2022-11-10T13:58:29.654Z,102095.97
2022-11-10T14:01:14.885Z,102086.88
2022-11-10T14:03:47.890Z,102082.16
2022-11-10T14:06:29.871Z,102095.75
2022-11-10T14:09:04.759Z,102100.56
2022-11-10T14:11:38.012Z,102105.38
2022-11-10T14:14:12.874Z,102091.16
2022-11-10T14:16:43.027Z,102090.00
2022-11-10T14:19:27.051Z,102082.31
2022-11-10T14:22:01.208Z,102075.66
2022-11-10T14:24:31.068Z,102081.38
2022-11-10T14:26:59.867Z,102086.00
2022-11-10T14:29:39.895Z,102087.91
2022-11-10T14:32:16.218Z,102093.03
2022-11-10T14:34:47.712Z,102110.78
2022-11-10T14:37:26.247Z,102107.38
2022-11-10T14:39:55.531Z,102109.97
2022-11-10T14:42:30.771Z,102113.50
2022-11-10T14:45:07.704Z,102123.53
2022-11-10T14:47:35.740Z,102116.84
2022-11-10T14:50:08.099Z,102132.28
2022-11-10T14:52:40.045Z,102129.78
2022-11-10T14:55:19.449Z,102135.69
2022-11-10T14:57:58.674Z,102126.09
2022-11-10T15:00:27.100Z,102136.22
2022-11-10T15:02:57.208Z,102128.81
2022-11-10T15:05:24.837Z,102145.13
2022-11-10T15:07:55.340Z,102154.00
2022-11-10T15:10:26.369Z,102152.88
2022-11-10T15:13:05.561Z,102150.59
2022-11-10T15:15:32.501Z,102148.66
2022-11-10T15:17:58.875Z,102152.69
2022-11-10T15:20:52.351Z,102159.41
2022-11-10T15:23:32.113Z,102152.16
2022-11-10T15:25:59.822Z,102152.88
2022-11-10T15:28:36.471Z,102154.75
2022-11-10T15:31:09.847Z,102162.50
2022-11-10T15:33:38.247Z,102171.06
2022-11-10T15:36:27.835Z,102171.47
2022-11-10T15:39:12.591Z,102172.78
2022-11-10T15:41:43.775Z,102172.03
2022-11-10T15:44:22.093Z,102167.66
2022-11-10T15:46:52.543Z,102181.06
2022-11-10T15:49:29.155Z,102188.50
2022-11-10T15:52:02.406Z,102186.78
2022-11-10T15:54:33.129Z,102198.78
2022-11-10T15:56:59.497Z,102198.19
2022-11-10T15:59:25.901Z,102186.53
2022-11-10T16:01:52.719Z,102192.38
2022-11-10T16:04:19.311Z,102196.94
2022-11-10T16:06:46.402Z,102204.09
2022-11-10T16:09:14.113Z,102202.38
2022-11-10T16:11:45.173Z,102207.38
2022-11-10T16:14:15.506Z,102204.50
2022-11-10T16:16:42.670Z,102200.66
2022-11-10T16:19:12.690Z,102196.38
2022-11-10T16:21:39.138Z,102195.38
2022-11-10T16:24:05.692Z,102203.25
2022-11-10T16:26:33.965Z,102197.69
2022-11-10T16:29:00.463Z,102202.06
2022-11-10T16:31:27.747Z,102195.69
2022-11-10T16:33:54.139Z,102197.53
2022-11-10T16:36:27.859Z,102210.38
2022-11-10T16:38:55.056Z,102221.06
2022-11-10T16:41:21.742Z,102222.91
2022-11-10T16:43:48.156Z,102236.03
2022-11-10T16:46:23.783Z,102236.44
2022-11-10T16:48:53.543Z,102239.28
2022-11-10T16:51:28.493Z,102233.16
2022-11-10T16:53:54.992Z,102236.28
2022-11-10T16:56:21.744Z,102234.00
2022-11-10T16:58:48.122Z,102241.97
2022-11-10T17:01:21.599Z,102245.97
2022-11-10T17:03:52.527Z,102243.00
2022-11-10T17:06:20.898Z,102242.25
2022-11-10T17:08:52.950Z,102242.41
2022-11-10T17:11:19.384Z,102247.50
2022-11-10T17:13:45.862Z,102255.91
2022-11-10T17:16:22.935Z,102257.44
2022-11-10T17:18:50.428Z,102256.16
2022-11-10T17:21:17.871Z,102267.31
2022-11-10T17:23:44.645Z,102266.78
2022-11-10T17:26:14.138Z,102271.78
2022-11-10T17:28:40.735Z,102264.13
2022-11-10T17:31:09.433Z,102255.44
2022-11-10T17:33:35.849Z,102250.72
2022-11-10T17:36:05.065Z,102257.28
2022-11-10T17:38:33.229Z,102269.50
2022-11-10T17:40:59.763Z,102282.19
2022-11-10T17:43:26.543Z,102279.69
2022-11-10T17:45:53.131Z,102278.81
2022-11-10T17:48:19.782Z,102282.06
2022-11-10T17:50:48.995Z,102269.94
2022-11-10T17:53:21.509Z,102273.94
2022-11-10T17:55:49.162Z,102281.44
2022-11-10T17:58:23.653Z,102294.69
2022-11-10T18:00:53.713Z,102294.97
2022-11-10T18:03:22.486Z,102294.34
2022-11-10T18:05:49.490Z,102293.13
2022-11-10T18:08:17.338Z,102301.16
2022-11-10T18:10:47.653Z,102299.97
2022-11-10T18:13:14.496Z,102292.19
2022-11-10T18:15:45.530Z,102292.31
2022-11-10T18:18:16.620Z,102287.91
2022-11-10T18:20:44.231Z,102290.03
2022-11-10T18:23:12.562Z,102295.22
2022-11-10T18:25:40.343Z,102292.31
2022-11-10T18:28:07.199Z,102292.25
2022-11-10T18:30:35.340Z,102294.22
2022-11-10T18:33:03.399Z,102293.25
2022-11-10T18:35:30.537Z,102281.81
2022-11-10T18:37:57.960Z,102283.53
2022-11-10T18:40:24.801Z,102285.75
2022-11-10T18:42:51.242Z,102288.50
2022-11-10T18:45:17.642Z,102293.44
2022-11-10T18:47:44.105Z,102287.88
2022-11-10T18:50:10.898Z,102270.34
2022-11-10T18:52:37.581Z,102274.03
2022-11-10T18:55:04.180Z,102273.66
2022-11-10T18:57:30.582Z,102281.34
2022-11-10T18:59:57.167Z,102285.72
2022-11-10T19:02:23.650Z,102289.91
2022-11-10T19:04:53.594Z,102293.88
2022-11-10T19:07:20.645Z,102288.41
2022-11-10T19:09:47.065Z,102294.34
2022-11-10T19:12:13.818Z,102296.78
2022-11-10T19:14:41.159Z,102294.44
2022-11-10T19:17:07.545Z,102295.56
2022-11-10T19:19:33.974Z,102305.00
2022-11-10T19:22:00.731Z,102307.44
2022-11-10T19:24:28.411Z,102311.53
2022-11-10T19:26:56.813Z,102310.09
2022-11-10T19:29:23.353Z,102313.19
2022-11-10T19:31:49.928Z,102312.44
2022-11-10T19:34:18.828Z,102318.59
2022-11-10T19:36:46.531Z,102320.78
2022-11-10T19:39:26.006Z,102315.13
2022-11-10T19:41:52.860Z,102312.56
2022-11-10T19:44:19.406Z,102313.19
2022-11-10T19:46:48.934Z,102316.00
2022-11-10T19:49:15.507Z,102335.06
2022-11-10T19:51:47.339Z,102334.19
2022-11-10T19:54:13.841Z,102345.59
2022-11-10T19:56:40.374Z,102346.69
2022-11-10T19:59:08.193Z,102351.13
2022-11-10T20:01:37.487Z,102357.25
2022-11-10T20:04:05.657Z,102361.81
2022-11-10T20:06:32.263Z,102378.28
2022-11-10T20:08:58.736Z,102370.69
2022-11-10T20:11:26.598Z,102364.28
2022-11-10T20:13:56.010Z,102359.63
2022-11-10T20:16:23.244Z,102354.31
2022-11-10T20:18:49.808Z,102359.38
2022-11-10T20:21:20.748Z,102347.72
2022-11-10T20:23:52.617Z,102362.00
2022-11-10T20:26:19.068Z,102350.31
2022-11-10T20:28:45.571Z,102349.84
2022-11-10T20:31:20.357Z,102356.13
2022-11-10T20:33:48.461Z,102354.63
2022-11-10T20:36:26.069Z,102351.69
2022-11-10T20:38:54.736Z,102360.03
2022-11-10T20:41:24.105Z,102359.78
2022-11-10T20:43:51.247Z,102355.13
2022-11-10T20:46:48.673Z,102351.81
2022-11-10T20:49:09.733Z,102343.00
2022-11-10T20:51:36.322Z,102341.38
2022-11-10T20:54:02.781Z,102339.53
2022-11-10T20:56:30.217Z,102355.88
2022-11-10T20:58:57.341Z,102359.56
2022-11-10T21:01:24.420Z,102354.34
2022-11-10T21:03:52.314Z,102347.06
2022-11-10T21:06:18.847Z,102345.94
2022-11-10T21:08:45.434Z,102364.44
2022-11-10T21:11:32.662Z,102371.84
2022-11-10T21:14:08.616Z,102376.84
2022-11-10T21:16:35.150Z,102374.66
2022-11-10T21:19:01.736Z,102376.22
2022-11-10T21:21:34.608Z,102370.56
2022-11-10T21:24:02.529Z,102366.78
2022-11-10T21:26:31.142Z,102369.84
2022-11-10T21:28:58.139Z,102370.84
2022-11-10T21:31:25.938Z,102373.88
2022-11-10T21:33:56.903Z,102384.44
2022-11-10T21:36:23.359Z,102384.56
2022-11-10T21:38:49.881Z,102391.19
2022-11-10T21:41:16.247Z,102387.63
2022-11-10T21:43:42.682Z,102390.84
2022-11-10T21:46:09.273Z,102392.66
2022-11-10T21:48:36.084Z,102404.31
2022-11-10T21:51:04.235Z,102409.50
2022-11-10T21:53:32.108Z,102412.44
2022-11-10T21:55:59.701Z,102423.22
2022-11-10T21:58:27.180Z,102426.66
2022-11-10T22:01:01.419Z,102436.00
2022-11-10T22:03:29.358Z,102445.06
2022-11-10T22:05:55.982Z,102449.72
2022-11-10T22:08:22.419Z,102445.19
2022-11-10T22:11:07.579Z,102452.66
2022-11-10T22:13:52.525Z,102454.22
2022-11-10T22:16:41.816Z,102454.50
2022-11-10T22:19:09.039Z,102442.56
2022-11-10T22:21:35.443Z,102446.13
2022-11-10T22:24:20.556Z,102450.94
2022-11-10T22:26:48.115Z,102441.84
2022-11-10T22:29:14.757Z,102443.44
2022-11-10T22:31:41.301Z,102434.34
2022-11-10T22:34:08.119Z,102448.09
2022-11-10T22:36:34.656Z,102453.63
2022-11-10T22:39:03.779Z,102469.66
2022-11-10T22:41:49.449Z,102480.34
2022-11-10T22:44:16.603Z,102462.28
2022-11-10T22:46:50.824Z,102452.59
2022-11-10T22:49:19.160Z,102458.75
2022-11-10T22:51:47.837Z,102472.56
2022-11-10T22:54:19.595Z,102466.34
2022-11-10T22:56:48.054Z,102465.84
2022-11-10T22:59:15.410Z,102468.34
2022-11-10T23:01:43.189Z,102477.59
2022-11-10T23:04:11.086Z,102477.69
2022-11-10T23:06:37.956Z,102476.63
2022-11-10T23:09:04.585Z,102483.84
2022-11-10T23:11:32.505Z,102482.84
2022-11-10T23:13:59.192Z,102485.28
2022-11-10T23:16:27.949Z,102487.75
2022-11-10T23:18:55.362Z,102489.84
2022-11-10T23:21:24.814Z,102504.53
2022-11-10T23:23:51.352Z,102508.81
2022-11-10T23:26:23.921Z,102512.50
2022-11-10T23:28:52.016Z,102509.56
2022-11-10T23:31:21.356Z,102508.66
2022-11-10T23:33:50.073Z,102508.38
2022-11-10T23:36:18.592Z,102502.97
2022-11-10T23:38:47.023Z,102503.63
2022-11-10T23:41:16.132Z,102497.13
2022-11-10T23:43:43.722Z,102490.38
2022-11-10T23:46:11.494Z,102486.50
2022-11-10T23:48:39.104Z,102493.16
2022-11-10T23:51:06.771Z,102494.38
2022-11-10T23:53:33.585Z,102488.53
2022-11-10T23:56:02.548Z,102491.56
2022-11-10T23:58:29.838Z,102495.56
